createdAt,value
2023-08-11T00:00:22.901Z,17.54
2023-08-11T00:02:53.357Z,17.52
2023-08-11T00:05:20.724Z,17.50
2023-08-11T00:07:52.194Z,17.50
2023-08-11T00:10:20.904Z,17.48
2023-08-11T00:12:48.639Z,17.43
2023-08-11T00:15:15.290Z,17.39
2023-08-11T00:17:42.191Z,17.37
2023-08-11T00:20:10.007Z,17.36
2023-08-11T00:22:39.151Z,17.33
2023-08-11T00:25:06.877Z,17.28
2023-08-11T00:27:33.555Z,17.24
2023-08-11T00:30:00.344Z,17.18
2023-08-11T00:32:27.057Z,17.09
2023-08-11T00:34:53.753Z,16.96
2023-08-11T00:37:20.351Z,16.87
2023-08-11T00:39:47.094Z,16.86
2023-08-11T00:42:14.108Z,16.86
2023-08-11T00:44:40.955Z,16.84
2023-08-11T00:47:08.737Z,16.78
2023-08-11T00:49:36.054Z,16.70
2023-08-11T00:52:04.552Z,16.61
2023-08-11T00:54:31.578Z,16.52
2023-08-11T00:56:58.391Z,16.41
2023-08-11T00:59:26.662Z,16.34
2023-08-11T01:01:53.401Z,16.30
2023-08-11T01:04:21.856Z,16.27
2023-08-11T01:07:17.374Z,16.27
2023-08-11T01:09:54.723Z,16.27
2023-08-11T01:12:32.344Z,16.30
2023-08-11T01:15:08.203Z,16.34
2023-08-11T01:17:36.566Z,16.35
2023-08-11T01:20:09.701Z,16.34
2023-08-11T01:22:38.061Z,16.32
2023-08-11T01:25:06.998Z,16.29
2023-08-11T01:27:37.635Z,16.27
2023-08-11T01:30:07.321Z,16.25
2023-08-11T01:32:33.981Z,16.24
2023-08-11T01:35:00.808Z,16.22
2023-08-11T01:37:27.746Z,16.21
2023-08-11T01:39:54.524Z,16.19
2023-08-11T01:42:21.769Z,16.16
2023-08-11T01:44:49.516Z,16.14
2023-08-11T01:47:18.154Z,16.14
2023-08-11T01:49:45.683Z,16.13
2023-08-11T01:52:13.286Z,16.13
2023-08-11T01:54:43.684Z,16.09
2023-08-11T01:57:10.901Z,16.04
2023-08-11T01:59:37.519Z,16.01
2023-08-11T02:02:04.315Z,15.95
2023-08-11T02:04:30.975Z,15.88
2023-08-11T02:06:57.582Z,15.76
2023-08-11T02:09:24.192Z,15.65
2023-08-11T02:11:50.741Z,15.60
2023-08-11T02:14:17.387Z,15.58
2023-08-11T02:16:57.096Z,15.56
2023-08-11T02:19:23.671Z,15.53
2023-08-11T02:21:51.634Z,15.56
2023-08-11T02:24:18.263Z,15.61
2023-08-11T02:26:44.947Z,15.63
2023-08-11T02:29:11.576Z,15.64
2023-08-11T02:31:38.216Z,15.66
2023-08-11T02:34:04.894Z,15.69
2023-08-11T02:36:31.582Z,15.68
2023-08-11T02:38:58.241Z,15.64
2023-08-11T02:41:25.097Z,15.63
2023-08-11T02:43:51.728Z,15.65
2023-08-11T02:46:18.349Z,15.66
2023-08-11T02:48:44.972Z,15.67
2023-08-11T02:51:11.518Z,15.69
2023-08-11T02:53:38.114Z,15.67
2023-08-11T02:56:07.949Z,15.64
2023-08-11T02:58:34.832Z,15.63
2023-08-11T03:01:02.019Z,15.55
2023-08-11T03:03:29.964Z,15.65
2023-08-11T03:05:59.223Z,15.67
2023-08-11T03:08:26.226Z,15.68
2023-08-11T03:10:57.228Z,15.68
2023-08-11T03:13:30.269Z,15.68
2023-08-11T03:15:57.565Z,15.67
2023-08-11T03:18:27.671Z,15.67
2023-08-11T03:21:00.485Z,15.66
2023-08-11T03:23:33.324Z,15.60
2023-08-11T03:25:59.921Z,15.56
2023-08-11T03:28:28.272Z,15.54
2023-08-11T03:30:55.956Z,15.42
2023-08-11T03:33:22.612Z,15.34
2023-08-11T03:35:53.734Z,15.27
2023-08-11T03:38:20.429Z,15.25
2023-08-11T03:40:48.226Z,15.26
2023-08-11T03:43:14.955Z,15.26
2023-08-11T03:45:41.944Z,15.29
2023-08-11T03:48:11.777Z,15.35
2023-08-11T03:50:38.377Z,15.36
2023-08-11T03:53:04.979Z,15.38
2023-08-11T03:55:31.790Z,15.45
2023-08-11T03:57:58.483Z,15.49
2023-08-11T04:00:26.260Z,15.58
2023-08-11T04:03:04.828Z,15.66
2023-08-11T04:05:31.680Z,15.74
2023-08-11T04:07:58.341Z,15.84
2023-08-11T04:10:25.669Z,15.94
2023-08-11T04:12:52.567Z,16.01
2023-08-11T04:15:19.671Z,16.09
2023-08-11T04:17:46.283Z,16.16
2023-08-11T04:20:14.593Z,16.21
2023-08-11T04:22:42.282Z,16.28
2023-08-11T04:25:11.703Z,16.38
2023-08-11T04:27:41.664Z,16.48
2023-08-11T04:30:11.263Z,16.53
2023-08-11T04:32:38.990Z,16.56
2023-08-11T04:35:09.500Z,16.61
2023-08-11T04:37:37.757Z,16.74
2023-08-11T04:40:09.784Z,16.85
2023-08-11T04:42:36.478Z,17.02
2023-08-11T04:45:03.569Z,17.13
2023-08-11T04:47:31.260Z,17.13
2023-08-11T04:49:58.754Z,17.17
2023-08-11T04:52:25.408Z,17.28
2023-08-11T04:54:52.157Z,17.40
2023-08-11T04:57:18.783Z,17.44
2023-08-11T04:59:46.901Z,17.47
2023-08-11T05:02:14.323Z,17.63
2023-08-11T05:04:41.320Z,17.71
2023-08-11T05:07:08.378Z,17.67
2023-08-11T05:09:38.781Z,17.71
2023-08-11T05:12:06.160Z,17.76
2023-08-11T05:14:33.133Z,17.79
2023-08-11T05:17:02.216Z,17.88
2023-08-11T05:19:30.597Z,18.04
2023-08-11T05:21:57.213Z,18.20
2023-08-11T05:24:23.814Z,18.46
2023-08-11T05:26:50.441Z,18.67
2023-08-11T05:29:17.029Z,18.70
2023-08-11T05:31:44.021Z,18.67
2023-08-11T05:34:11.017Z,18.76
2023-08-11T05:36:38.160Z,18.92
2023-08-11T05:39:05.055Z,18.96
2023-08-11T05:41:31.826Z,18.38
2023-08-11T05:43:58.488Z,17.74
2023-08-11T05:46:25.220Z,17.53
2023-08-11T05:48:52.418Z,18.02
2023-08-11T05:51:19.181Z,18.55
2023-08-11T05:53:45.965Z,19.05
2023-08-11T05:56:12.580Z,19.38
2023-08-11T05:58:39.252Z,19.57
2023-08-11T06:01:05.979Z,19.82
2023-08-11T06:03:32.760Z,19.75
2023-08-11T06:06:02.056Z,19.12
2023-08-11T06:08:29.564Z,18.56
2023-08-11T06:10:56.720Z,18.30
2023-08-11T06:13:26.391Z,18.86
2023-08-11T06:15:53.140Z,19.51
2023-08-11T06:18:19.851Z,19.74
2023-08-11T06:20:48.517Z,19.30
2023-08-11T06:23:15.245Z,18.79
2023-08-11T06:25:43.057Z,18.61
2023-08-11T06:28:10.132Z,19.25
2023-08-11T06:30:36.854Z,19.99
2023-08-11T06:33:03.885Z,20.31
2023-08-11T06:35:31.424Z,19.92
2023-08-11T06:37:58.452Z,19.44
2023-08-11T06:40:25.181Z,19.13
2023-08-11T06:42:51.853Z,19.15
2023-08-11T06:45:19.688Z,19.94
2023-08-11T06:47:46.463Z,21.04
2023-08-11T06:50:14.425Z,22.30
2023-08-11T06:52:41.144Z,23.90
2023-08-11T06:55:08.087Z,25.63
2023-08-11T06:57:34.833Z,27.30
2023-08-11T07:00:01.622Z,28.77
2023-08-11T07:02:28.393Z,29.75
2023-08-11T07:04:55.045Z,30.55
2023-08-11T07:07:21.734Z,31.36
2023-08-11T07:09:48.384Z,31.95
2023-08-11T07:12:14.979Z,32.60
2023-08-11T07:14:43.742Z,33.25
2023-08-11T07:17:12.039Z,34.05
2023-08-11T07:19:39.082Z,34.74
2023-08-11T07:22:05.764Z,35.29
2023-08-11T07:24:32.494Z,35.83
2023-08-11T07:26:59.103Z,36.45
2023-08-11T07:29:25.744Z,37.02
2023-08-11T07:31:52.371Z,37.47
2023-08-11T07:34:19.363Z,38.12
2023-08-11T07:36:46.001Z,38.64
2023-08-11T07:39:22.890Z,39.02
2023-08-11T07:41:51.654Z,39.65
2023-08-11T07:44:18.483Z,39.96
2023-08-11T07:46:45.355Z,40.11
2023-08-11T07:49:12.187Z,40.28
2023-08-11T07:51:41.049Z,40.43
2023-08-11T07:54:07.932Z,40.46
2023-08-11T07:56:35.134Z,40.41
2023-08-11T07:59:02.027Z,40.56
2023-08-11T08:01:29.162Z,41.20
2023-08-11T08:03:57.546Z,42.11
2023-08-11T08:06:25.103Z,42.67
2023-08-11T08:08:51.768Z,43.07
2023-08-11T08:11:18.549Z,43.08
2023-08-11T08:13:45.316Z,42.88
2023-08-11T08:16:12.058Z,42.69
2023-08-11T08:18:38.721Z,42.59
2023-08-11T08:21:05.381Z,42.97
2023-08-11T08:23:31.984Z,43.35
2023-08-11T08:25:59.192Z,43.46
2023-08-11T08:28:26.120Z,43.44
2023-08-11T08:30:53.252Z,43.55
2023-08-11T08:33:19.900Z,43.30
2023-08-11T08:35:47.664Z,43.08
2023-08-11T08:38:14.274Z,43.28
2023-08-11T08:40:41.073Z,43.96
2023-08-11T08:43:09.937Z,44.93
2023-08-11T08:45:38.647Z,45.73
2023-08-11T08:48:14.411Z,46.04
2023-08-11T08:50:41.025Z,45.88
2023-08-11T08:53:07.826Z,45.53
2023-08-11T08:55:34.684Z,45.34
2023-08-11T08:58:03.159Z,45.76
2023-08-11T09:00:29.891Z,46.28
2023-08-11T09:02:58.575Z,46.77
2023-08-11T09:05:26.565Z,47.03
2023-08-11T09:07:53.927Z,47.48
2023-08-11T09:10:20.634Z,47.71
2023-08-11T09:12:49.518Z,47.56
2023-08-11T09:15:16.555Z,47.56
2023-08-11T09:17:43.566Z,47.35
2023-08-11T09:20:13.977Z,47.11
2023-08-11T09:22:41.619Z,46.97
2023-08-11T09:25:09.031Z,46.68
2023-08-11T09:27:35.822Z,46.57
2023-08-11T09:30:02.512Z,45.99
2023-08-11T09:32:33.353Z,45.74
2023-08-11T09:35:14.014Z,46.68
2023-08-11T09:37:44.945Z,47.62
2023-08-11T09:40:12.717Z,48.59
2023-08-11T09:42:39.735Z,49.67
2023-08-11T09:45:07.344Z,49.97
2023-08-11T09:47:36.834Z,49.80
2023-08-11T09:50:04.744Z,49.59
2023-08-11T09:52:36.484Z,49.31
2023-08-11T09:55:07.507Z,49.46
2023-08-11T09:57:38.487Z,49.92
2023-08-11T10:00:07.304Z,50.47
2023-08-11T10:02:37.177Z,51.08
2023-08-11T10:05:08.015Z,51.76
2023-08-11T10:07:40.348Z,52.37
2023-08-11T10:10:19.116Z,52.93
2023-08-11T10:12:53.801Z,53.61
2023-08-11T10:15:23.654Z,54.19
2023-08-11T10:17:51.134Z,54.09
2023-08-11T10:20:18.149Z,53.31
2023-08-11T10:22:44.936Z,52.27
2023-08-11T10:25:12.457Z,51.42
2023-08-11T10:27:40.627Z,50.78
2023-08-11T10:30:09.304Z,50.46
2023-08-11T10:32:36.485Z,50.13
2023-08-11T10:35:07.687Z,49.57
2023-08-11T10:37:34.983Z,48.86
2023-08-11T10:40:06.440Z,47.09
2023-08-11T10:42:33.547Z,44.61
2023-08-11T10:45:11.550Z,42.18
2023-08-11T10:47:40.148Z,40.00
2023-08-11T10:50:10.400Z,38.25
2023-08-11T10:52:37.204Z,37.50
2023-08-11T10:55:04.300Z,38.27
2023-08-11T10:57:35.471Z,39.63
2023-08-11T11:00:02.133Z,39.96
2023-08-11T11:02:30.866Z,39.20
2023-08-11T11:04:58.522Z,39.23
2023-08-11T11:07:26.151Z,40.41
2023-08-11T11:09:53.353Z,41.90
2023-08-11T11:12:20.921Z,42.95
2023-08-11T11:14:47.700Z,43.79
2023-08-11T11:17:14.393Z,44.18
2023-08-11T11:19:41.516Z,44.97
2023-08-11T11:22:09.393Z,45.14
2023-08-11T11:24:38.546Z,44.66
2023-08-11T11:27:05.923Z,43.31
2023-08-11T11:29:33.224Z,41.61
2023-08-11T11:32:07.697Z,39.92
2023-08-11T11:34:38.633Z,39.12
2023-08-11T11:37:05.482Z,38.69
2023-08-11T11:39:33.246Z,37.77
2023-08-11T11:42:07.922Z,36.42
2023-08-11T11:44:35.830Z,35.13
2023-08-11T11:47:06.281Z,34.15
2023-08-11T11:49:33.088Z,33.36
2023-08-11T11:52:01.692Z,33.08
2023-08-11T11:54:30.174Z,33.61
2023-08-11T11:57:04.901Z,34.73
2023-08-11T11:59:33.959Z,36.11
2023-08-11T12:02:04.877Z,36.63
2023-08-11T12:04:32.319Z,36.02
2023-08-11T12:06:59.171Z,34.97
2023-08-11T12:09:25.918Z,34.23
2023-08-11T12:11:55.303Z,33.99
2023-08-11T12:14:21.923Z,34.26
2023-08-11T12:16:48.648Z,34.98
2023-08-11T12:19:15.952Z,35.64
2023-08-11T12:21:43.959Z,36.11
2023-08-11T12:24:15.618Z,36.53
2023-08-11T12:26:42.428Z,36.59
2023-08-11T12:29:09.193Z,35.97
2023-08-11T12:31:35.852Z,35.49
2023-08-11T12:34:02.593Z,35.06
2023-08-11T12:36:29.622Z,35.05
2023-08-11T12:38:56.772Z,35.33
2023-08-11T12:41:24.654Z,35.62
2023-08-11T12:43:51.339Z,35.88
2023-08-11T12:46:18.019Z,35.66
2023-08-11T12:48:44.927Z,34.86
2023-08-11T12:51:11.798Z,33.93
2023-08-11T12:53:38.465Z,32.96
2023-08-11T12:56:05.590Z,32.12
2023-08-11T12:58:32.620Z,31.43
2023-08-11T13:00:59.278Z,30.92
2023-08-11T13:03:27.402Z,30.57
2023-08-11T13:05:54.166Z,30.38
2023-08-11T13:08:20.884Z,30.68
2023-08-11T13:10:47.604Z,31.17
2023-08-11T13:13:14.362Z,31.76
2023-08-11T13:15:41.401Z,32.28
2023-08-11T13:18:08.120Z,32.23
2023-08-11T13:20:34.861Z,31.72
2023-08-11T13:23:01.621Z,30.91
2023-08-11T13:25:28.387Z,30.43
2023-08-11T13:27:55.194Z,30.39
2023-08-11T13:30:23.061Z,30.50
2023-08-11T13:32:49.812Z,30.73
2023-08-11T13:35:16.607Z,31.08
2023-08-11T13:37:43.434Z,31.28
2023-08-11T13:40:10.891Z,31.39
2023-08-11T13:42:38.573Z,31.48
2023-08-11T13:45:08.111Z,31.57
2023-08-11T13:47:35.400Z,31.68
2023-08-11T13:50:02.426Z,31.62
2023-08-11T13:52:29.161Z,31.63
2023-08-11T13:55:04.158Z,31.71
2023-08-11T13:57:31.077Z,31.77
2023-08-11T13:59:59.605Z,31.71
2023-08-11T14:02:28.044Z,31.28
2023-08-11T14:04:55.688Z,30.63
2023-08-11T14:07:31.750Z,29.91
2023-08-11T14:10:00.767Z,29.13
2023-08-11T14:12:27.670Z,28.45
2023-08-11T14:14:54.640Z,27.88
2023-08-11T14:17:21.352Z,27.52
2023-08-11T14:19:48.095Z,27.35
2023-08-11T14:22:15.094Z,27.21
2023-08-11T14:24:42.141Z,27.09
2023-08-11T14:27:08.847Z,26.99
2023-08-11T14:29:35.699Z,26.83
2023-08-11T14:32:18.285Z,26.64
2023-08-11T14:34:49.435Z,26.41
2023-08-11T14:37:17.588Z,26.25
2023-08-11T14:39:46.022Z,26.09
2023-08-11T14:42:15.140Z,25.98
2023-08-11T14:44:42.889Z,25.89
2023-08-11T14:47:14.503Z,25.79
2023-08-11T14:49:42.671Z,25.73
2023-08-11T14:52:09.985Z,25.69
2023-08-11T14:54:37.399Z,25.68
2023-08-11T14:57:04.754Z,25.73
2023-08-11T14:59:32.735Z,25.79
2023-08-11T15:01:59.626Z,25.84
2023-08-11T15:04:27.945Z,25.86
2023-08-11T15:06:54.908Z,25.84
2023-08-11T15:09:21.723Z,25.80
2023-08-11T15:11:49.388Z,25.75
2023-08-11T15:14:16.990Z,25.75
2023-08-11T15:16:43.766Z,25.78
2023-08-11T15:19:10.728Z,25.85
2023-08-11T15:21:37.725Z,25.91
2023-08-11T15:24:04.799Z,25.95
2023-08-11T15:26:31.477Z,25.98
2023-08-11T15:29:00.749Z,26.03
2023-08-11T15:31:27.938Z,26.10
2023-08-11T15:33:54.769Z,26.18
2023-08-11T15:36:21.754Z,26.22
2023-08-11T15:38:50.447Z,26.18
2023-08-11T15:41:17.772Z,26.09
2023-08-11T15:43:44.441Z,25.97
2023-08-11T15:46:11.602Z,25.86
2023-08-11T15:48:38.317Z,25.75
2023-08-11T15:51:05.261Z,25.59
2023-08-11T15:53:31.954Z,25.43
2023-08-11T15:55:58.645Z,25.31
2023-08-11T15:58:25.293Z,25.20
2023-08-11T16:00:52.371Z,25.08
2023-08-11T16:03:21.398Z,24.95
2023-08-11T16:05:49.163Z,24.85
2023-08-11T16:08:15.998Z,24.69
2023-08-11T16:10:43.461Z,24.52
2023-08-11T16:13:13.082Z,24.40
2023-08-11T16:15:39.933Z,24.32
2023-08-11T16:18:10.703Z,24.27
2023-08-11T16:20:40.109Z,24.23
2023-08-11T16:23:08.009Z,24.20
2023-08-11T16:25:34.731Z,24.19
2023-08-11T16:28:01.440Z,24.16
2023-08-11T16:30:28.438Z,24.15
2023-08-11T16:32:58.443Z,24.13
2023-08-11T16:35:25.372Z,24.11
2023-08-11T16:37:52.169Z,24.11
2023-08-11T16:40:18.832Z,24.11
2023-08-11T16:42:45.493Z,24.12
2023-08-11T16:45:12.210Z,24.13
2023-08-11T16:47:39.031Z,24.16
2023-08-11T16:50:06.353Z,24.19
2023-08-11T16:52:33.096Z,24.21
2023-08-11T16:54:59.948Z,24.22
2023-08-11T16:57:26.554Z,24.20
2023-08-11T16:59:53.232Z,24.15
2023-08-11T17:02:20.122Z,24.08
2023-08-11T17:04:47.227Z,23.99
2023-08-11T17:07:13.901Z,23.92
2023-08-11T17:09:40.594Z,23.84
2023-08-11T17:12:08.144Z,23.76
2023-08-11T17:14:35.277Z,23.68
2023-08-11T17:17:01.956Z,23.61
2023-08-11T17:19:28.797Z,23.55
2023-08-11T17:21:58.358Z,23.47
2023-08-11T17:24:25.039Z,23.40
2023-08-11T17:26:52.497Z,23.33
2023-08-11T17:29:19.143Z,23.25
2023-08-11T17:31:45.902Z,23.19
2023-08-11T17:34:12.554Z,23.13
2023-08-11T17:36:39.205Z,23.07
2023-08-11T17:39:07.421Z,23.01
2023-08-11T17:41:34.068Z,22.93
2023-08-11T17:44:00.673Z,22.87
2023-08-11T17:46:29.166Z,22.79
2023-08-11T17:48:56.478Z,22.72
2023-08-11T17:51:24.008Z,22.63
2023-08-11T17:54:03.857Z,22.52
2023-08-11T17:56:39.346Z,22.38
2023-08-11T17:59:06.405Z,22.26
2023-08-11T18:01:33.388Z,22.17
2023-08-11T18:04:07.540Z,22.06
2023-08-11T18:06:36.069Z,21.92
2023-08-11T18:09:04.766Z,21.72
2023-08-11T18:11:31.680Z,21.54
2023-08-11T18:13:58.391Z,21.37
2023-08-11T18:16:27.933Z,21.19
2023-08-11T18:18:54.775Z,21.00
2023-08-11T18:21:21.755Z,20.80
2023-08-11T18:23:48.668Z,20.59
2023-08-11T18:26:17.526Z,20.40
2023-08-11T18:28:44.834Z,20.22
2023-08-11T18:31:11.692Z,20.03
2023-08-11T18:33:38.607Z,19.81
2023-08-11T18:36:05.641Z,19.56
2023-08-11T18:38:32.285Z,19.31
2023-08-11T18:40:59.164Z,19.03
2023-08-11T18:43:25.907Z,18.76
2023-08-11T18:45:52.583Z,18.55
2023-08-11T18:48:19.715Z,18.38
2023-08-11T18:50:46.683Z,18.25
2023-08-11T18:53:14.086Z,18.11
2023-08-11T18:55:40.776Z,17.99
2023-08-11T18:58:08.062Z,17.86
2023-08-11T19:00:34.756Z,17.73
2023-08-11T19:03:01.541Z,17.61
2023-08-11T19:05:28.655Z,17.48
2023-08-11T19:07:56.035Z,17.36
2023-08-11T19:10:28.705Z,17.19
2023-08-11T19:12:55.481Z,17.20
2023-08-11T19:15:22.179Z,17.91
2023-08-11T19:17:48.825Z,18.64
2023-08-11T19:20:15.552Z,19.00
2023-08-11T19:22:43.186Z,18.57
2023-08-11T19:25:11.975Z,18.04
2023-08-11T19:27:39.442Z,17.62
2023-08-11T19:30:07.566Z,17.30
2023-08-11T19:32:35.815Z,17.04
2023-08-11T19:35:04.161Z,16.95
2023-08-11T19:37:30.888Z,17.58
2023-08-11T19:39:57.622Z,18.21
2023-08-11T19:42:24.421Z,18.63
2023-08-11T19:44:51.205Z,18.77
2023-08-11T19:47:17.839Z,18.25
2023-08-11T19:49:44.510Z,17.65
2023-08-11T19:52:12.044Z,17.18
2023-08-11T19:54:39.084Z,16.81
2023-08-11T19:57:05.955Z,16.66
2023-08-11T19:59:32.646Z,17.22
2023-08-11T20:01:59.371Z,17.79
2023-08-11T20:04:28.415Z,18.16
2023-08-11T20:06:55.333Z,18.41
2023-08-11T20:09:23.480Z,18.57
2023-08-11T20:11:51.503Z,18.55
2023-08-11T20:14:19.817Z,17.93
2023-08-11T20:16:51.461Z,17.28
2023-08-11T20:19:19.479Z,16.77
2023-08-11T20:21:46.456Z,16.52
2023-08-11T20:24:13.203Z,17.00
2023-08-11T20:26:39.844Z,17.51
2023-08-11T20:29:06.909Z,17.84
2023-08-11T20:31:34.207Z,17.96
2023-08-11T20:34:01.458Z,17.40
2023-08-11T20:36:28.613Z,16.76
2023-08-11T20:38:55.222Z,16.38
2023-08-11T20:41:21.863Z,16.74
2023-08-11T20:43:49.646Z,17.22
2023-08-11T20:46:16.882Z,17.53
2023-08-11T20:48:43.622Z,17.74
2023-08-11T20:51:12.873Z,17.89
2023-08-11T20:53:40.046Z,18.01
2023-08-11T20:56:06.710Z,17.99
2023-08-11T20:58:33.550Z,17.38
2023-08-11T21:01:00.521Z,16.69
2023-08-11T21:03:27.435Z,16.29
2023-08-11T21:05:54.928Z,16.65
2023-08-11T21:08:22.315Z,17.08
2023-08-11T21:10:49.118Z,17.37
2023-08-11T21:13:16.000Z,17.55
2023-08-11T21:15:42.656Z,17.66
2023-08-11T21:18:10.799Z,17.62
2023-08-11T21:20:38.341Z,16.96
2023-08-11T21:23:06.287Z,16.22
2023-08-11T21:25:33.247Z,15.81
2023-08-11T21:28:00.319Z,16.17
2023-08-11T21:30:27.007Z,16.62
2023-08-11T21:32:53.779Z,16.91
2023-08-11T21:35:21.335Z,17.10
2023-08-11T21:37:48.951Z,17.24
2023-08-11T21:40:15.712Z,17.33
2023-08-11T21:42:42.766Z,17.28
2023-08-11T21:45:10.869Z,16.64
2023-08-11T21:47:37.486Z,15.89
2023-08-11T21:50:04.477Z,15.47
2023-08-11T21:52:31.111Z,15.81
2023-08-11T21:54:57.738Z,16.25
2023-08-11T21:57:24.401Z,16.53
2023-08-11T21:59:51.100Z,16.71
2023-08-11T22:02:17.959Z,16.83
2023-08-11T22:04:46.448Z,16.92
2023-08-11T22:07:14.058Z,17.00
2023-08-11T22:09:40.961Z,17.06
2023-08-11T22:12:07.780Z,17.11
2023-08-11T22:14:35.124Z,17.16
2023-08-11T22:17:01.757Z,17.07
2023-08-11T22:19:30.489Z,16.38
2023-08-11T22:21:57.815Z,15.60
2023-08-11T22:24:38.550Z,15.17
2023-08-11T22:27:08.143Z,15.54
2023-08-11T22:29:34.791Z,15.94
2023-08-11T22:32:02.194Z,16.18
2023-08-11T22:34:28.812Z,16.34
2023-08-11T22:36:56.213Z,16.46
2023-08-11T22:39:22.954Z,16.55
2023-08-11T22:41:49.560Z,16.62
2023-08-11T22:44:16.233Z,16.67
2023-08-11T22:46:43.403Z,16.72
2023-08-11T22:49:10.114Z,16.75
2023-08-11T22:51:36.754Z,16.79
2023-08-11T22:54:03.499Z,16.83
2023-08-11T22:56:30.132Z,16.71
2023-08-11T22:58:56.790Z,16.00
2023-08-11T23:01:23.456Z,15.22
2023-08-11T23:03:50.199Z,14.73
2023-08-11T23:06:16.993Z,15.05
2023-08-11T23:08:43.709Z,15.47
2023-08-11T23:11:10.318Z,15.72
2023-08-11T23:13:36.955Z,15.87
2023-08-11T23:16:04.271Z,15.99
2023-08-11T23:18:31.111Z,16.09
2023-08-11T23:20:57.778Z,16.16
2023-08-11T23:23:24.411Z,16.22
2023-08-11T23:25:51.249Z,16.26
2023-08-11T23:28:18.591Z,16.30
2023-08-11T23:30:45.231Z,16.32
2023-08-11T23:33:13.087Z,16.35
2023-08-11T23:35:40.147Z,16.23
2023-08-11T23:38:08.411Z,15.47
2023-08-11T23:40:35.060Z,14.76
2023-08-11T23:43:02.964Z,14.88
2023-08-11T23:45:30.734Z,15.18
2023-08-11T23:47:57.898Z,15.40
2023-08-11T23:50:24.970Z,15.56
2023-08-11T23:52:51.557Z,15.67
2023-08-11T23:55:18.187Z,15.75
2023-08-11T23:57:44.808Z,15.81
